To NAV CANADA Home Page Login to a new session Search on AWWS site Feedback and Comments Disclaimer Vers la page française équivalente Tips FAQ What's new on the site To the Forecasts and Observations / NOTAM section To "File a Flight Plan" website Publications and other links Update of the User's profile FIC Telephone Numbers My Weather Data Folder Route Weather Data Regional Weather Data Local Weather Data To the Forecasts and Observations / NOTAM section
Request Generated 08/03/2015 at 06:34:49 UTC . Weather information available at that time is displayed.

METAR/TAF

YARMOUTH/NS    

METAR CYQI 030600Z CCA 19004KT 130V210 8SM SKC 13/13 A2992 RMK
SLP132=
METAR CYQI 030600Z 19004KT 130V210 8SM SKC 13/13 A2992 RMK SLP132=
METAR CYQI 030500Z 09003KT 060V210 6SM BR SKC 14/13 A2992 RMK SLP131=
SPECI CYQI 030426Z 08004KT 4SM BR SKC 13/13 A2991 RMK SLP130=
SPECI CYQI 030414Z VRB02KT 1/8SM FG VV001 13/12 A2992 RMK FG8 SLP131=
METAR CYQI 030400Z 16004KT 1/2SM FG SKC 14/14 A2992 RMK SLP132=

TAF CYQI 030538Z 0306/0318 VRB03KT 1/8SM FG VV001 TEMPO 0306/0312 6SM
BR SKC
FM031200 19010KT P6SM SCT050
RMK NXT FCST BY 031200Z=
Your time UTC time
Weather data provided by Environment Canada and NAV CANADA